sensor_id;sensor_type;location;lat;lon;timestamp;P1;durP1;ratioP1;P2;durP2;ratioP2
10269;SDS011;70826;50.930;5.334;2023-06-22T00:02:17;4.43;;;3.47;;
10269;SDS011;70826;50.930;5.334;2023-06-22T00:04:43;3.50;;;3.13;;
10269;SDS011;70826;50.930;5.334;2023-06-22T00:07:13;4.00;;;3.08;;
10269;SDS011;70826;50.930;5.334;2023-06-22T00:09:40;3.70;;;2.83;;
10269;SDS011;70826;50.930;5.334;2023-06-22T00:12:11;5.63;;;3.33;;
10269;SDS011;70826;50.930;5.334;2023-06-22T00:14:39;4.35;;;3.17;;
10269;SDS011;70826;50.930;5.334;2023-06-22T00:17:05;5.18;;;3.42;;
10269;SDS011;70826;50.930;5.334;2023-06-22T00:19:33;4.97;;;3.45;;
10269;SDS011;70826;50.930;5.334;2023-06-22T00:22:05;5.18;;;3.10;;
10269;SDS011;70826;50.930;5.334;2023-06-22T00:24:33;5.00;;;3.47;;
10269;SDS011;70826;50.930;5.334;2023-06-22T00:27:04;3.60;;;3.28;;
10269;SDS011;70826;50.930;5.334;2023-06-22T00:29:32;4.43;;;3.33;;
10269;SDS011;70826;50.930;5.334;2023-06-22T00:31:58;4.68;;;3.25;;
10269;SDS011;70826;50.930;5.334;2023-06-22T00:34:26;5.50;;;3.45;;
10269;SDS011;70826;50.930;5.334;2023-06-22T00:36:57;5.57;;;3.40;;
10269;SDS011;70826;50.930;5.334;2023-06-22T00:39:25;5.25;;;3.40;;
10269;SDS011;70826;50.930;5.334;2023-06-22T00:41:51;4.93;;;3.15;;
10269;SDS011;70826;50.930;5.334;2023-06-22T00:44:20;5.25;;;3.25;;
10269;SDS011;70826;50.930;5.334;2023-06-22T00:46:46;4.10;;;3.30;;
10269;SDS011;70826;50.930;5.334;2023-06-22T00:49:14;4.25;;;3.05;;
10269;SDS011;70826;50.930;5.334;2023-06-22T00:51:44;4.65;;;3.40;;
10269;SDS011;70826;50.930;5.334;2023-06-22T00:54:14;5.38;;;3.55;;
10269;SDS011;70826;50.930;5.334;2023-06-22T00:56:41;6.10;;;3.40;;
10269;SDS011;70826;50.930;5.334;2023-06-22T00:59:07;5.63;;;3.63;;
10269;SDS011;70826;50.930;5.334;2023-06-22T01:01:37;6.35;;;3.90;;
10269;SDS011;70826;50.930;5.334;2023-06-22T01:04:06;6.55;;;3.70;;
10269;SDS011;70826;50.930;5.334;2023-06-22T01:06:35;7.60;;;3.70;;
10269;SDS011;70826;50.930;5.334;2023-06-22T01:09:22;6.80;;;3.90;;
10269;SDS011;70826;50.930;5.334;2023-06-22T01:11:59;11.25;;;4.40;;
10269;SDS011;70826;50.930;5.334;2023-06-22T01:17:11;8.60;;;4.38;;
10269;SDS011;70826;50.930;5.334;2023-06-22T01:19:47;9.30;;;4.60;;
10269;SDS011;70826;50.930;5.334;2023-06-22T01:22:21;9.55;;;4.78;;
10269;SDS011;70826;50.930;5.334;2023-06-22T01:30:19;11.02;;;5.07;;
10269;SDS011;70826;50.930;5.334;2023-06-22T01:32:51;12.10;;;5.43;;
10269;SDS011;70826;50.930;5.334;2023-06-22T01:35:22;11.45;;;5.25;;
10269;SDS011;70826;50.930;5.334;2023-06-22T01:37:52;14.88;;;5.70;;
10269;SDS011;70826;50.930;5.334;2023-06-22T01:40:21;15.40;;;6.13;;
10269;SDS011;70826;50.930;5.334;2023-06-22T01:42:47;12.38;;;6.00;;
10269;SDS011;70826;50.930;5.334;2023-06-22T01:45:17;17.30;;;6.60;;
10269;SDS011;70826;50.930;5.334;2023-06-22T01:47:49;13.65;;;5.88;;
10269;SDS011;70826;50.930;5.334;2023-06-22T01:50:17;16.90;;;6.50;;
10269;SDS011;70826;50.930;5.334;2023-06-22T01:52:43;16.10;;;6.18;;
10269;SDS011;70826;50.930;5.334;2023-06-22T01:55:11;12.50;;;5.90;;
10269;SDS011;70826;50.930;5.334;2023-06-22T01:57:39;16.23;;;6.72;;
10269;SDS011;70826;50.930;5.334;2023-06-22T02:00:09;17.00;;;6.82;;
10269;SDS011;70826;50.930;5.334;2023-06-22T02:02:39;16.30;;;6.70;;
10269;SDS011;70826;50.930;5.334;2023-06-22T02:05:16;13.90;;;6.43;;
10269;SDS011;70826;50.930;5.334;2023-06-22T02:07:49;16.98;;;6.88;;
10269;SDS011;70826;50.930;5.334;2023-06-22T02:10:20;15.85;;;6.75;;
10269;SDS011;70826;50.930;5.334;2023-06-22T02:12:48;15.45;;;7.03;;
10269;SDS011;70826;50.930;5.334;2023-06-22T02:15:19;14.35;;;6.63;;
10269;SDS011;70826;50.930;5.334;2023-06-22T02:17:47;17.70;;;7.05;;
10269;SDS011;70826;50.930;5.334;2023-06-22T02:20:18;19.55;;;7.05;;
10269;SDS011;70826;50.930;5.334;2023-06-22T02:22:46;14.70;;;6.10;;
10269;SDS011;70826;50.930;5.334;2023-06-22T02:25:12;14.93;;;6.75;;
10269;SDS011;70826;50.930;5.334;2023-06-22T02:27:40;15.85;;;6.60;;
10269;SDS011;70826;50.930;5.334;2023-06-22T02:30:09;15.80;;;6.88;;
10269;SDS011;70826;50.930;5.334;2023-06-22T02:32:35;15.70;;;6.82;;
10269;SDS011;70826;50.930;5.334;2023-06-22T02:35:01;17.33;;;6.63;;
10269;SDS011;70826;50.930;5.334;2023-06-22T02:37:32;15.00;;;6.60;;
10269;SDS011;70826;50.930;5.334;2023-06-22T02:40:04;14.35;;;6.38;;
10269;SDS011;70826;50.930;5.334;2023-06-22T02:42:33;13.77;;;6.30;;
10269;SDS011;70826;50.930;5.334;2023-06-22T02:45:02;11.30;;;5.85;;
10269;SDS011;70826;50.930;5.334;2023-06-22T02:47:32;15.00;;;6.30;;
10269;SDS011;70826;50.930;5.334;2023-06-22T02:49:58;12.85;;;6.05;;
10269;SDS011;70826;50.930;5.334;2023-06-22T02:52:23;15.40;;;6.13;;
10269;SDS011;70826;50.930;5.334;2023-06-22T02:54:51;10.32;;;5.72;;
10269;SDS011;70826;50.930;5.334;2023-06-22T02:57:20;12.90;;;6.25;;
10269;SDS011;70826;50.930;5.334;2023-06-22T02:59:48;11.00;;;6.00;;
10269;SDS011;70826;50.930;5.334;2023-06-22T03:02:18;11.52;;;5.72;;
10269;SDS011;70826;50.930;5.334;2023-06-22T03:04:49;11.10;;;5.47;;
10269;SDS011;70826;50.930;5.334;2023-06-22T03:07:15;11.38;;;5.90;;
10269;SDS011;70826;50.930;5.334;2023-06-22T03:09:44;10.30;;;5.50;;
10269;SDS011;70826;50.930;5.334;2023-06-22T03:12:15;9.73;;;5.53;;
10269;SDS011;70826;50.930;5.334;2023-06-22T03:14:41;11.43;;;5.50;;
10269;SDS011;70826;50.930;5.334;2023-06-22T03:17:07;10.77;;;5.60;;
10269;SDS011;70826;50.930;5.334;2023-06-22T03:19:36;7.10;;;5.03;;
10269;SDS011;70826;50.930;5.334;2023-06-22T03:22:09;8.65;;;5.00;;
10269;SDS011;70826;50.930;5.334;2023-06-22T03:24:35;10.60;;;5.20;;
10269;SDS011;70826;50.930;5.334;2023-06-22T03:27:04;10.55;;;5.40;;
10269;SDS011;70826;50.930;5.334;2023-06-22T03:29:30;9.10;;;5.10;;
10269;SDS011;70826;50.930;5.334;2023-06-22T03:32:01;8.75;;;4.97;;
10269;SDS011;70826;50.930;5.334;2023-06-22T03:34:28;8.82;;;5.32;;
10269;SDS011;70826;50.930;5.334;2023-06-22T03:36:58;8.50;;;5.05;;
10269;SDS011;70826;50.930;5.334;2023-06-22T03:39:24;8.55;;;5.03;;
10269;SDS011;70826;50.930;5.334;2023-06-22T03:41:52;7.70;;;4.75;;
10269;SDS011;70826;50.930;5.334;2023-06-22T03:44:23;8.45;;;4.68;;
10269;SDS011;70826;50.930;5.334;2023-06-22T03:46:52;7.15;;;4.82;;
10269;SDS011;70826;50.930;5.334;2023-06-22T03:49:18;8.40;;;4.70;;
10269;SDS011;70826;50.930;5.334;2023-06-22T03:51:43;8.43;;;5.13;;
10269;SDS011;70826;50.930;5.334;2023-06-22T03:54:09;6.28;;;4.68;;
10269;SDS011;70826;50.930;5.334;2023-06-22T03:56:39;7.00;;;5.03;;
10269;SDS011;70826;50.930;5.334;2023-06-22T03:59:06;6.68;;;4.80;;
10269;SDS011;70826;50.930;5.334;2023-06-22T04:01:34;5.75;;;4.63;;
10269;SDS011;70826;50.930;5.334;2023-06-22T04:04:01;5.38;;;4.50;;
10269;SDS011;70826;50.930;5.334;2023-06-22T04:06:28;5.35;;;4.40;;
10269;SDS011;70826;50.930;5.334;2023-06-22T04:08:55;6.70;;;4.68;;
10269;SDS011;70826;50.930;5.334;2023-06-22T04:11:22;5.70;;;4.40;;
10269;SDS011;70826;50.930;5.334;2023-06-22T04:13:50;5.40;;;4.22;;
10269;SDS011;70826;50.930;5.334;2023-06-22T04:16:16;6.38;;;5.28;;
10269;SDS011;70826;50.930;5.334;2023-06-22T04:18:45;6.63;;;4.65;;
10269;SDS011;70826;50.930;5.334;2023-06-22T04:21:12;7.50;;;4.90;;
10269;SDS011;70826;50.930;5.334;2023-06-22T04:23:39;6.18;;;4.82;;
10269;SDS011;70826;50.930;5.334;2023-06-22T04:26:05;5.60;;;4.30;;
10269;SDS011;70826;50.930;5.334;2023-06-22T04:28:30;6.13;;;4.30;;
10269;SDS011;70826;50.930;5.334;2023-06-22T04:31:01;6.88;;;4.80;;
10269;SDS011;70826;50.930;5.334;2023-06-22T04:33:30;5.65;;;4.40;;
10269;SDS011;70826;50.930;5.334;2023-06-22T04:35:59;5.80;;;4.40;;
10269;SDS011;70826;50.930;5.334;2023-06-22T04:38:31;6.47;;;5.03;;
10269;SDS011;70826;50.930;5.334;2023-06-22T04:41:05;5.85;;;4.50;;
10269;SDS011;70826;50.930;5.334;2023-06-22T04:43:33;6.15;;;4.80;;
10269;SDS011;70826;50.930;5.334;2023-06-22T04:45:59;5.78;;;4.40;;
10269;SDS011;70826;50.930;5.334;2023-06-22T04:48:29;4.78;;;4.25;;
10269;SDS011;70826;50.930;5.334;2023-06-22T04:50:58;5.60;;;4.97;;
10269;SDS011;70826;50.930;5.334;2023-06-22T04:53:28;5.95;;;4.75;;
10269;SDS011;70826;50.930;5.334;2023-06-22T04:55:57;5.70;;;4.60;;
10269;SDS011;70826;50.930;5.334;2023-06-22T04:58:25;5.10;;;4.40;;
10269;SDS011;70826;50.930;5.334;2023-06-22T05:00:57;7.45;;;5.30;;
10269;SDS011;70826;50.930;5.334;2023-06-22T05:03:24;6.57;;;5.45;;
10269;SDS011;70826;50.930;5.334;2023-06-22T05:05:53;7.32;;;5.75;;
10269;SDS011;70826;50.930;5.334;2023-06-22T05:08:22;5.93;;;5.32;;
10269;SDS011;70826;50.930;5.334;2023-06-22T05:10:51;6.05;;;4.90;;
10269;SDS011;70826;50.930;5.334;2023-06-22T05:13:19;6.72;;;5.47;;
10269;SDS011;70826;50.930;5.334;2023-06-22T05:15:51;6.35;;;5.18;;
10269;SDS011;70826;50.930;5.334;2023-06-22T05:18:25;7.07;;;5.32;;
10269;SDS011;70826;50.930;5.334;2023-06-22T05:20:54;7.32;;;5.50;;
10269;SDS011;70826;50.930;5.334;2023-06-22T05:23:23;9.40;;;5.30;;
10269;SDS011;70826;50.930;5.334;2023-06-22T05:25:51;6.10;;;5.00;;
10269;SDS011;70826;50.930;5.334;2023-06-22T05:28:16;7.25;;;5.53;;
10269;SDS011;70826;50.930;5.334;2023-06-22T05:30:48;7.85;;;5.03;;
10269;SDS011;70826;50.930;5.334;2023-06-22T05:33:18;7.07;;;5.22;;
10269;SDS011;70826;50.930;5.334;2023-06-22T05:35:46;6.28;;;5.07;;
10269;SDS011;70826;50.930;5.334;2023-06-22T05:38:12;6.82;;;5.20;;
10269;SDS011;70826;50.930;5.334;2023-06-22T05:40:42;5.38;;;4.85;;
10269;SDS011;70826;50.930;5.334;2023-06-22T05:43:08;5.38;;;4.85;;
10269;SDS011;70826;50.930;5.334;2023-06-22T05:45:36;6.15;;;5.30;;
10269;SDS011;70826;50.930;5.334;2023-06-22T05:48:07;7.18;;;5.90;;
10269;SDS011;70826;50.930;5.334;2023-06-22T05:50:32;6.57;;;5.90;;
10269;SDS011;70826;50.930;5.334;2023-06-22T05:52:58;5.82;;;5.22;;
10269;SDS011;70826;50.930;5.334;2023-06-22T05:55:26;6.20;;;5.50;;
10269;SDS011;70826;50.930;5.334;2023-06-22T05:57:51;5.53;;;4.95;;
10269;SDS011;70826;50.930;5.334;2023-06-22T06:00:20;6.00;;;5.30;;
10269;SDS011;70826;50.930;5.334;2023-06-22T06:02:49;6.45;;;5.70;;
10269;SDS011;70826;50.930;5.334;2023-06-22T06:05:15;6.53;;;5.60;;
10269;SDS011;70826;50.930;5.334;2023-06-22T06:07:44;6.50;;;5.90;;
10269;SDS011;70826;50.930;5.334;2023-06-22T06:10:13;6.90;;;5.78;;
10269;SDS011;70826;50.930;5.334;2023-06-22T06:12:42;6.03;;;5.00;;
10269;SDS011;70826;50.930;5.334;2023-06-22T06:15:12;6.18;;;5.25;;
10269;SDS011;70826;50.930;5.334;2023-06-22T06:17:49;6.03;;;5.43;;
10269;SDS011;70826;50.930;5.334;2023-06-22T06:20:21;6.07;;;5.47;;
10269;SDS011;70826;50.930;5.334;2023-06-22T06:22:48;10.32;;;8.43;;
10269;SDS011;70826;50.930;5.334;2023-06-22T06:25:19;7.00;;;5.90;;
10269;SDS011;70826;50.930;5.334;2023-06-22T06:27:45;7.32;;;6.10;;
10269;SDS011;70826;50.930;5.334;2023-06-22T06:30:14;8.82;;;5.82;;
10269;SDS011;70826;50.930;5.334;2023-06-22T06:32:44;15.27;;;6.18;;
10269;SDS011;70826;50.930;5.334;2023-06-22T06:35:12;10.98;;;5.78;;
10269;SDS011;70826;50.930;5.334;2023-06-22T06:37:42;10.85;;;5.40;;
10269;SDS011;70826;50.930;5.334;2023-06-22T06:40:13;9.88;;;5.00;;
10269;SDS011;70826;50.930;5.334;2023-06-22T06:42:41;6.63;;;4.70;;
10269;SDS011;70826;50.930;5.334;2023-06-22T06:45:28;6.53;;;5.07;;
10269;SDS011;70826;50.930;5.334;2023-06-22T06:48:00;7.05;;;4.78;;
10269;SDS011;70826;50.930;5.334;2023-06-22T06:50:27;6.57;;;4.90;;
10269;SDS011;70826;50.930;5.334;2023-06-22T06:52:56;8.90;;;5.20;;
10269;SDS011;70826;50.930;5.334;2023-06-22T06:55:24;11.25;;;5.68;;
10269;SDS011;70826;50.930;5.334;2023-06-22T06:57:50;11.95;;;5.43;;
10269;SDS011;70826;50.930;5.334;2023-06-22T07:00:20;11.25;;;5.57;;
10269;SDS011;70826;50.930;5.334;2023-06-22T07:02:50;7.32;;;5.20;;
10269;SDS011;70826;50.930;5.334;2023-06-22T07:05:15;8.48;;;5.10;;
10269;SDS011;70826;50.930;5.334;2023-06-22T07:07:41;55.40;;;9.27;;
10269;SDS011;70826;50.930;5.334;2023-06-22T07:10:08;48.22;;;10.05;;
10269;SDS011;70826;50.930;5.334;2023-06-22T07:12:36;50.10;;;9.48;;
10269;SDS011;70826;50.930;5.334;2023-06-22T07:15:04;44.63;;;10.02;;
10269;SDS011;70826;50.930;5.334;2023-06-22T07:17:40;38.55;;;11.50;;
10269;SDS011;70826;50.930;5.334;2023-06-22T07:20:06;27.50;;;10.55;;
10269;SDS011;70826;50.930;5.334;2023-06-22T07:22:39;31.55;;;9.93;;
10269;SDS011;70826;50.930;5.334;2023-06-22T07:25:07;29.70;;;9.45;;
10269;SDS011;70826;50.930;5.334;2023-06-22T07:27:39;27.25;;;10.10;;
10269;SDS011;70826;50.930;5.334;2023-06-22T07:30:12;25.60;;;8.93;;
10269;SDS011;70826;50.930;5.334;2023-06-22T07:32:45;35.55;;;9.30;;
10269;SDS011;70826;50.930;5.334;2023-06-22T07:35:14;23.40;;;8.30;;
10269;SDS011;70826;50.930;5.334;2023-06-22T07:37:42;16.15;;;7.55;;
10269;SDS011;70826;50.930;5.334;2023-06-22T07:40:10;17.35;;;8.02;;
10269;SDS011;70826;50.930;5.334;2023-06-22T07:42:37;16.08;;;7.28;;
10269;SDS011;70826;50.930;5.334;2023-06-22T07:45:03;20.13;;;7.72;;
10269;SDS011;70826;50.930;5.334;2023-06-22T07:47:38;16.75;;;7.80;;
10269;SDS011;70826;50.930;5.334;2023-06-22T07:50:04;15.15;;;7.75;;
10269;SDS011;70826;50.930;5.334;2023-06-22T07:52:31;16.85;;;7.22;;
10269;SDS011;70826;50.930;5.334;2023-06-22T07:55:02;14.27;;;7.50;;
10269;SDS011;70826;50.930;5.334;2023-06-22T07:57:28;13.68;;;7.18;;
10269;SDS011;70826;50.930;5.334;2023-06-22T07:59:59;12.77;;;7.38;;
10269;SDS011;70826;50.930;5.334;2023-06-22T08:02:25;11.50;;;6.57;;
10269;SDS011;70826;50.930;5.334;2023-06-22T08:04:54;18.88;;;7.45;;
10269;SDS011;70826;50.930;5.334;2023-06-22T08:07:19;13.48;;;6.40;;
10269;SDS011;70826;50.930;5.334;2023-06-22T08:09:47;13.35;;;6.78;;
10269;SDS011;70826;50.930;5.334;2023-06-22T08:12:16;13.82;;;6.35;;
10269;SDS011;70826;50.930;5.334;2023-06-22T08:14:42;10.60;;;6.75;;
10269;SDS011;70826;50.930;5.334;2023-06-22T08:17:11;11.75;;;6.80;;
10269;SDS011;70826;50.930;5.334;2023-06-22T08:19:37;11.23;;;6.40;;
10269;SDS011;70826;50.930;5.334;2023-06-22T08:22:05;12.75;;;6.45;;
10269;SDS011;70826;50.930;5.334;2023-06-22T08:24:31;7.78;;;5.93;;
10269;SDS011;70826;50.930;5.334;2023-06-22T08:26:57;12.10;;;6.50;;
10269;SDS011;70826;50.930;5.334;2023-06-22T08:29:22;18.48;;;5.97;;
10269;SDS011;70826;50.930;5.334;2023-06-22T08:31:49;15.52;;;6.35;;
10269;SDS011;70826;50.930;5.334;2023-06-22T08:34:15;20.85;;;6.25;;
10269;SDS011;70826;50.930;5.334;2023-06-22T08:36:43;14.30;;;6.00;;
10269;SDS011;70826;50.930;5.334;2023-06-22T08:39:19;14.18;;;6.05;;
10269;SDS011;70826;50.930;5.334;2023-06-22T08:41:48;16.20;;;6.07;;
10269;SDS011;70826;50.930;5.334;2023-06-22T08:44:21;13.50;;;6.10;;
10269;SDS011;70826;50.930;5.334;2023-06-22T08:46:47;12.52;;;6.05;;
10269;SDS011;70826;50.930;5.334;2023-06-22T08:49:14;11.95;;;5.95;;
10269;SDS011;70826;50.930;5.334;2023-06-22T08:51:40;12.82;;;5.88;;
10269;SDS011;70826;50.930;5.334;2023-06-22T08:54:07;11.60;;;6.18;;
10269;SDS011;70826;50.930;5.334;2023-06-22T08:56:35;11.38;;;5.93;;
10269;SDS011;70826;50.930;5.334;2023-06-22T08:59:05;12.63;;;6.40;;
10269;SDS011;70826;50.930;5.334;2023-06-22T09:01:36;9.95;;;5.88;;
10269;SDS011;70826;50.930;5.334;2023-06-22T09:04:06;12.20;;;6.63;;
10269;SDS011;70826;50.930;5.334;2023-06-22T09:06:34;9.23;;;6.47;;
10269;SDS011;70826;50.930;5.334;2023-06-22T09:09:08;11.43;;;6.30;;
10269;SDS011;70826;50.930;5.334;2023-06-22T09:11:34;7.65;;;6.05;;
10269;SDS011;70826;50.930;5.334;2023-06-22T09:14:03;11.30;;;6.93;;
10269;SDS011;70826;50.930;5.334;2023-06-22T09:16:31;8.57;;;6.95;;
10269;SDS011;70826;50.930;5.334;2023-06-22T09:18:57;8.02;;;6.88;;
10269;SDS011;70826;50.930;5.334;2023-06-22T09:21:23;9.35;;;7.47;;
10269;SDS011;70826;50.930;5.334;2023-06-22T09:23:49;7.55;;;6.85;;
10269;SDS011;70826;50.930;5.334;2023-06-22T09:26:18;8.25;;;7.00;;
10269;SDS011;70826;50.930;5.334;2023-06-22T09:28:44;8.25;;;6.55;;
10269;SDS011;70826;50.930;5.334;2023-06-22T09:31:12;7.50;;;6.72;;
10269;SDS011;70826;50.930;5.334;2023-06-22T09:33:41;7.78;;;6.70;;
10269;SDS011;70826;50.930;5.334;2023-06-22T09:36:07;7.55;;;6.30;;
10269;SDS011;70826;50.930;5.334;2023-06-22T09:38:38;7.63;;;6.88;;
10269;SDS011;70826;50.930;5.334;2023-06-22T09:41:04;7.82;;;6.35;;
10269;SDS011;70826;50.930;5.334;2023-06-22T09:43:31;7.45;;;6.57;;
10269;SDS011;70826;50.930;5.334;2023-06-22T09:46:02;8.73;;;6.32;;
10269;SDS011;70826;50.930;5.334;2023-06-22T09:48:28;6.97;;;6.35;;
10269;SDS011;70826;50.930;5.334;2023-06-22T09:50:55;6.75;;;6.00;;
10269;SDS011;70826;50.930;5.334;2023-06-22T09:53:24;6.72;;;5.90;;
10269;SDS011;70826;50.930;5.334;2023-06-22T09:55:53;7.13;;;5.95;;
10269;SDS011;70826;50.930;5.334;2023-06-22T09:58:22;6.82;;;6.13;;
10269;SDS011;70826;50.930;5.334;2023-06-22T10:00:48;6.28;;;5.78;;
10269;SDS011;70826;50.930;5.334;2023-06-22T10:03:13;6.05;;;5.45;;
10269;SDS011;70826;50.930;5.334;2023-06-22T10:05:39;6.50;;;5.90;;
10269;SDS011;70826;50.930;5.334;2023-06-22T10:08:05;6.85;;;6.18;;
10269;SDS011;70826;50.930;5.334;2023-06-22T10:10:32;7.57;;;6.85;;
10269;SDS011;70826;50.930;5.334;2023-06-22T10:13:10;7.55;;;6.78;;
10269;SDS011;70826;50.930;5.334;2023-06-22T10:15:36;6.90;;;6.20;;
10269;SDS011;70826;50.930;5.334;2023-06-22T10:18:04;7.28;;;6.57;;
10269;SDS011;70826;50.930;5.334;2023-06-22T10:20:33;7.60;;;6.82;;
10269;SDS011;70826;50.930;5.334;2023-06-22T10:23:03;7.60;;;6.88;;
10269;SDS011;70826;50.930;5.334;2023-06-22T10:25:31;7.20;;;6.50;;
10269;SDS011;70826;50.930;5.334;2023-06-22T10:28:01;7.68;;;6.97;;
10269;SDS011;70826;50.930;5.334;2023-06-22T10:30:27;8.73;;;7.75;;
10269;SDS011;70826;50.930;5.334;2023-06-22T10:32:57;9.57;;;7.55;;
10269;SDS011;70826;50.930;5.334;2023-06-22T10:35:26;8.80;;;7.90;;
10269;SDS011;70826;50.930;5.334;2023-06-22T10:37:54;8.20;;;7.40;;
10269;SDS011;70826;50.930;5.334;2023-06-22T10:40:22;8.23;;;7.43;;
10269;SDS011;70826;50.930;5.334;2023-06-22T10:42:53;9.10;;;8.13;;
10269;SDS011;70826;50.930;5.334;2023-06-22T10:45:19;9.60;;;8.48;;
10269;SDS011;70826;50.930;5.334;2023-06-22T10:47:44;8.57;;;7.78;;
10269;SDS011;70826;50.930;5.334;2023-06-22T10:50:10;8.27;;;7.05;;
10269;SDS011;70826;50.930;5.334;2023-06-22T10:52:41;9.68;;;8.77;;
10269;SDS011;70826;50.930;5.334;2023-06-22T10:55:08;10.00;;;9.05;;
10269;SDS011;70826;50.930;5.334;2023-06-22T10:57:37;9.25;;;8.25;;
10269;SDS011;70826;50.930;5.334;2023-06-22T11:00:07;9.32;;;8.32;;
10269;SDS011;70826;50.930;5.334;2023-06-22T11:02:34;8.07;;;7.28;;
10269;SDS011;70826;50.930;5.334;2023-06-22T11:04:59;9.38;;;8.35;;
10269;SDS011;70826;50.930;5.334;2023-06-22T11:07:28;8.93;;;8.05;;
10269;SDS011;70826;50.930;5.334;2023-06-22T11:09:57;10.02;;;9.00;;
10269;SDS011;70826;50.930;5.334;2023-06-22T11:12:26;10.35;;;9.35;;
10269;SDS011;70826;50.930;5.334;2023-06-22T11:14:54;10.32;;;8.48;;
10269;SDS011;70826;50.930;5.334;2023-06-22T11:17:22;9.60;;;8.70;;
10269;SDS011;70826;50.930;5.334;2023-06-22T11:19:47;10.75;;;9.65;;
10269;SDS011;70826;50.930;5.334;2023-06-22T11:22:14;10.13;;;8.63;;
10269;SDS011;70826;50.930;5.334;2023-06-22T11:24:42;10.98;;;9.98;;
10269;SDS011;70826;50.930;5.334;2023-06-22T11:27:09;10.60;;;9.70;;
10269;SDS011;70826;50.930;5.334;2023-06-22T11:29:35;10.77;;;9.77;;
10269;SDS011;70826;50.930;5.334;2023-06-22T11:32:01;11.20;;;10.20;;
10269;SDS011;70826;50.930;5.334;2023-06-22T11:34:29;12.13;;;10.93;;
10269;SDS011;70826;50.930;5.334;2023-06-22T11:36:56;11.48;;;10.48;;
10269;SDS011;70826;50.930;5.334;2023-06-22T11:39:22;15.73;;;14.20;;
10269;SDS011;70826;50.930;5.334;2023-06-22T11:41:50;13.60;;;12.38;;
10269;SDS011;70826;50.930;5.334;2023-06-22T11:44:23;12.00;;;10.90;;
10269;SDS011;70826;50.930;5.334;2023-06-22T11:46:49;12.60;;;11.50;;
10269;SDS011;70826;50.930;5.334;2023-06-22T11:49:15;12.73;;;11.52;;
10269;SDS011;70826;50.930;5.334;2023-06-22T11:51:41;11.73;;;10.73;;
10269;SDS011;70826;50.930;5.334;2023-06-22T11:54:07;13.30;;;12.10;;
10269;SDS011;70826;50.930;5.334;2023-06-22T11:56:33;11.65;;;10.55;;
10269;SDS011;70826;50.930;5.334;2023-06-22T11:58:59;12.35;;;11.25;;
10269;SDS011;70826;50.930;5.334;2023-06-22T12:01:28;12.70;;;11.60;;
10269;SDS011;70826;50.930;5.334;2023-06-22T12:03:58;12.55;;;11.55;;
10269;SDS011;70826;50.930;5.334;2023-06-22T12:06:26;12.55;;;11.45;;
10269;SDS011;70826;50.930;5.334;2023-06-22T12:08:54;12.32;;;11.23;;
10269;SDS011;70826;50.930;5.334;2023-06-22T12:11:20;13.50;;;12.40;;
10269;SDS011;70826;50.930;5.334;2023-06-22T12:13:48;11.45;;;10.45;;
10269;SDS011;70826;50.930;5.334;2023-06-22T12:16:19;12.77;;;11.68;;
10269;SDS011;70826;50.930;5.334;2023-06-22T12:18:46;12.32;;;11.23;;
10269;SDS011;70826;50.930;5.334;2023-06-22T12:21:12;12.98;;;11.88;;
10269;SDS011;70826;50.930;5.334;2023-06-22T12:23:40;12.68;;;11.57;;
10269;SDS011;70826;50.930;5.334;2023-06-22T12:26:06;12.18;;;11.18;;
10269;SDS011;70826;50.930;5.334;2023-06-22T12:28:34;12.38;;;11.27;;
10269;SDS011;70826;50.930;5.334;2023-06-22T12:31:00;12.85;;;11.68;;
10269;SDS011;70826;50.930;5.334;2023-06-22T12:33:29;12.15;;;11.15;;
10269;SDS011;70826;50.930;5.334;2023-06-22T12:36:00;12.13;;;11.13;;
10269;SDS011;70826;50.930;5.334;2023-06-22T12:38:29;12.60;;;11.48;;
10269;SDS011;70826;50.930;5.334;2023-06-22T12:40:55;11.93;;;10.93;;
10269;SDS011;70826;50.930;5.334;2023-06-22T12:43:21;13.13;;;12.00;;
10269;SDS011;70826;50.930;5.334;2023-06-22T12:45:54;12.55;;;11.45;;
10269;SDS011;70826;50.930;5.334;2023-06-22T12:48:24;13.02;;;11.85;;
10269;SDS011;70826;50.930;5.334;2023-06-22T12:50:51;13.57;;;12.38;;
10269;SDS011;70826;50.930;5.334;2023-06-22T12:53:19;12.90;;;11.70;;
10269;SDS011;70826;50.930;5.334;2023-06-22T12:55:47;14.73;;;13.43;;
10269;SDS011;70826;50.930;5.334;2023-06-22T12:58:15;14.30;;;13.00;;
10269;SDS011;70826;50.930;5.334;2023-06-22T13:00:44;11.88;;;10.85;;
10269;SDS011;70826;50.930;5.334;2023-06-22T13:03:13;10.88;;;9.98;;
10269;SDS011;70826;50.930;5.334;2023-06-22T13:05:41;12.10;;;11.10;;
10269;SDS011;70826;50.930;5.334;2023-06-22T13:08:06;10.90;;;9.90;;
10269;SDS011;70826;50.930;5.334;2023-06-22T13:10:35;12.00;;;10.93;;
10269;SDS011;70826;50.930;5.334;2023-06-22T13:13:01;12.68;;;11.57;;
10269;SDS011;70826;50.930;5.334;2023-06-22T13:15:30;11.40;;;10.38;;
10269;SDS011;70826;50.930;5.334;2023-06-22T13:17:58;13.60;;;12.30;;
10269;SDS011;70826;50.930;5.334;2023-06-22T13:20:24;15.07;;;11.82;;
10269;SDS011;70826;50.930;5.334;2023-06-22T13:22:52;13.60;;;11.77;;
10269;SDS011;70826;50.930;5.334;2023-06-22T13:25:19;12.60;;;11.30;;
10269;SDS011;70826;50.930;5.334;2023-06-22T13:27:47;14.15;;;10.85;;
10269;SDS011;70826;50.930;5.334;2023-06-22T13:30:15;11.50;;;9.63;;
10269;SDS011;70826;50.930;5.334;2023-06-22T13:32:41;10.98;;;8.95;;
10269;SDS011;70826;50.930;5.334;2023-06-22T13:35:07;13.90;;;9.70;;
10269;SDS011;70826;50.930;5.334;2023-06-22T13:37:36;11.40;;;9.32;;
10269;SDS011;70826;50.930;5.334;2023-06-22T13:40:05;12.73;;;8.30;;
10269;SDS011;70826;50.930;5.334;2023-06-22T13:42:37;10.57;;;9.48;;
10269;SDS011;70826;50.930;5.334;2023-06-22T13:45:04;9.73;;;8.82;;
10269;SDS011;70826;50.930;5.334;2023-06-22T13:47:31;10.32;;;9.15;;
10269;SDS011;70826;50.930;5.334;2023-06-22T13:49:58;9.27;;;8.32;;
10269;SDS011;70826;50.930;5.334;2023-06-22T13:52:24;10.65;;;8.80;;
10269;SDS011;70826;50.930;5.334;2023-06-22T13:54:50;11.10;;;8.27;;
10269;SDS011;70826;50.930;5.334;2023-06-22T13:57:17;17.90;;;8.57;;
10269;SDS011;70826;50.930;5.334;2023-06-22T13:59:42;13.43;;;8.13;;
10269;SDS011;70826;50.930;5.334;2023-06-22T14:02:10;13.23;;;8.27;;
10269;SDS011;70826;50.930;5.334;2023-06-22T14:04:36;16.95;;;7.78;;
10269;SDS011;70826;50.930;5.334;2023-06-22T14:07:02;10.27;;;7.63;;
10269;SDS011;70826;50.930;5.334;2023-06-22T14:09:29;12.77;;;7.63;;
10269;SDS011;70826;50.930;5.334;2023-06-22T14:11:55;10.90;;;7.85;;
10269;SDS011;70826;50.930;5.334;2023-06-22T14:14:21;10.10;;;7.00;;
10269;SDS011;70826;50.930;5.334;2023-06-22T14:16:51;9.30;;;7.68;;
10269;SDS011;70826;50.930;5.334;2023-06-22T14:19:21;8.85;;;7.32;;
10269;SDS011;70826;50.930;5.334;2023-06-22T14:21:50;8.90;;;7.30;;
10269;SDS011;70826;50.930;5.334;2023-06-22T14:24:18;9.40;;;7.18;;
10269;SDS011;70826;50.930;5.334;2023-06-22T14:26:43;10.85;;;7.63;;
10269;SDS011;70826;50.930;5.334;2023-06-22T14:29:09;8.80;;;7.63;;
10269;SDS011;70826;50.930;5.334;2023-06-22T14:31:37;7.80;;;7.10;;
10269;SDS011;70826;50.930;5.334;2023-06-22T14:34:08;8.25;;;7.45;;
10269;SDS011;70826;50.930;5.334;2023-06-22T14:36:35;7.85;;;7.05;;
10269;SDS011;70826;50.930;5.334;2023-06-22T14:39:00;7.63;;;6.82;;
10269;SDS011;70826;50.930;5.334;2023-06-22T14:41:29;8.00;;;6.95;;
10269;SDS011;70826;50.930;5.334;2023-06-22T14:43:56;7.38;;;6.55;;
10269;SDS011;70826;50.930;5.334;2023-06-22T14:46:24;7.75;;;6.95;;
10269;SDS011;70826;50.930;5.334;2023-06-22T14:48:51;7.45;;;6.75;;
10269;SDS011;70826;50.930;5.334;2023-06-22T14:51:17;8.00;;;7.20;;
10269;SDS011;70826;50.930;5.334;2023-06-22T14:53:46;7.55;;;6.85;;